createdAt,value
2018-05-07T00:01:12.718Z,12.70
2018-05-07T00:03:40.140Z,12.60
2018-05-07T00:06:07.674Z,12.50
2018-05-07T00:08:35.959Z,12.30
2018-05-07T00:11:03.481Z,12.30
2018-05-07T00:13:30.981Z,12.30
2018-05-07T00:15:58.523Z,12.20
2018-05-07T00:18:26.791Z,12.10
2018-05-07T00:20:55.091Z,12.00
2018-05-07T00:23:22.591Z,12.00
2018-05-07T00:25:50.097Z,12.10
2018-05-07T00:28:18.533Z,12.10
2018-05-07T00:30:46.794Z,12.10
2018-05-07T00:33:14.365Z,12.00
2018-05-07T00:35:41.858Z,12.00
2018-05-07T00:38:10.165Z,11.90
2018-05-07T00:40:37.716Z,11.90
2018-05-07T00:43:05.284Z,11.80
2018-05-07T00:45:32.817Z,11.80
2018-05-07T00:48:01.091Z,11.70
2018-05-07T00:50:29.436Z,11.70
2018-05-07T00:52:57.628Z,11.70
2018-05-07T00:55:25.917Z,11.70
2018-05-07T00:57:54.208Z,11.70
2018-05-07T01:00:21.747Z,11.70
2018-05-07T01:02:51.276Z,11.60
2018-05-07T01:05:18.794Z,11.60
2018-05-07T01:07:46.390Z,11.60
2018-05-07T01:10:13.930Z,11.50
2018-05-07T01:12:42.248Z,11.40
2018-05-07T01:15:09.761Z,11.40
2018-05-07T01:17:38.032Z,11.30
2018-05-07T01:20:05.555Z,11.30
2018-05-07T01:22:33.076Z,11.30
2018-05-07T01:25:01.345Z,11.30
2018-05-07T01:27:29.637Z,11.30
2018-05-07T01:29:57.138Z,11.30
2018-05-07T01:32:24.674Z,11.30
2018-05-07T01:34:52.189Z,11.30
2018-05-07T01:37:20.476Z,11.20
2018-05-07T01:39:47.968Z,11.10
2018-05-07T01:42:16.209Z,11.10
2018-05-07T01:44:43.744Z,11.00
2018-05-07T01:47:12.032Z,10.90
2018-05-07T01:49:40.295Z,10.80
2018-05-07T01:52:07.800Z,10.80
2018-05-07T01:54:35.314Z,10.70
2018-05-07T01:57:02.811Z,10.70
2018-05-07T01:59:30.397Z,10.60
2018-05-07T02:01:57.937Z,10.50
2018-05-07T02:04:25.489Z,10.50
2018-05-07T02:06:53.016Z,10.50
2018-05-07T02:09:21.286Z,10.40
2018-05-07T02:11:49.574Z,10.30
2018-05-07T02:14:17.883Z,10.30
2018-05-07T02:16:46.157Z,10.30
2018-05-07T02:19:13.692Z,10.30
2018-05-07T02:21:42.747Z,10.20
2018-05-07T02:24:10.256Z,10.10
2018-05-07T02:26:37.770Z,10.10
2018-05-07T02:29:06.009Z,10.10
2018-05-07T02:31:33.527Z,10.00
2018-05-07T02:34:01.814Z,9.90
2018-05-07T02:36:30.093Z,9.90
2018-05-07T02:38:59.160Z,9.90
2018-05-07T02:41:26.636Z,9.90
2018-05-07T02:43:54.921Z,10.00
2018-05-07T02:46:22.450Z,9.90
2018-05-07T02:48:50.025Z,9.90
2018-05-07T02:51:18.349Z,9.90
2018-05-07T02:53:45.902Z,9.90
2018-05-07T02:56:13.456Z,9.90
2018-05-07T02:58:40.996Z,9.90
2018-05-07T03:01:10.182Z,9.90
2018-05-07T03:03:37.695Z,9.90
2018-05-07T03:06:05.204Z,9.90
2018-05-07T03:08:32.732Z,9.90
2018-05-07T03:11:00.225Z,9.80
2018-05-07T03:13:27.743Z,9.80
2018-05-07T03:15:55.322Z,9.80
2018-05-07T03:18:22.913Z,9.90
2018-05-07T03:20:50.490Z,9.90
2018-05-07T03:23:18.067Z,9.80
2018-05-07T03:25:45.619Z,9.80
2018-05-07T03:28:13.176Z,9.80
2018-05-07T03:30:40.708Z,9.80
2018-05-07T03:33:08.776Z,9.80
2018-05-07T03:35:37.119Z,9.80
2018-05-07T03:38:04.620Z,9.80
2018-05-07T03:40:32.122Z,9.80
2018-05-07T03:42:59.679Z,9.80
2018-05-07T03:45:27.749Z,9.80
2018-05-07T03:47:55.330Z,9.80
2018-05-07T03:50:22.909Z,9.80
2018-05-07T03:52:50.485Z,9.80
2018-05-07T03:55:18.315Z,9.80
2018-05-07T03:57:46.801Z,9.80
2018-05-07T04:00:14.365Z,9.80
2018-05-07T04:02:42.292Z,9.80
2018-05-07T04:05:09.904Z,9.90
2018-05-07T04:07:37.482Z,9.90
2018-05-07T04:10:05.051Z,9.90
2018-05-07T04:12:32.580Z,10.00
2018-05-07T04:15:00.146Z,10.10
2018-05-07T04:17:40.522Z,10.10
2018-05-07T04:20:20.023Z,10.10
2018-05-07T04:23:00.175Z,10.40
2018-05-07T04:25:30.054Z,10.80
2018-05-07T04:27:57.616Z,10.80
2018-05-07T04:30:25.171Z,11.30
2018-05-07T04:32:52.704Z,12.00
2018-05-07T04:35:20.246Z,12.40
2018-05-07T04:37:47.775Z,12.70
2018-05-07T04:40:16.105Z,13.20
2018-05-07T04:42:43.655Z,13.10
2018-05-07T04:45:11.168Z,13.30
2018-05-07T04:47:38.720Z,13.50
2018-05-07T04:50:06.250Z,13.60
2018-05-07T04:52:33.789Z,13.80
2018-05-07T04:55:01.346Z,13.90
2018-05-07T04:57:29.664Z,14.20
2018-05-07T04:59:57.211Z,14.10
2018-05-07T05:02:24.733Z,14.30
2018-05-07T05:04:52.260Z,14.40
2018-05-07T05:07:20.564Z,14.70
2018-05-07T05:09:48.111Z,14.70
2018-05-07T05:12:17.125Z,15.00
2018-05-07T05:14:44.636Z,15.00
2018-05-07T05:17:13.627Z,15.10
2018-05-07T05:19:41.202Z,15.20
2018-05-07T05:22:08.763Z,15.40
2018-05-07T05:24:37.689Z,15.70
2018-05-07T05:27:05.234Z,15.70
2018-05-07T05:29:32.881Z,15.90
2018-05-07T05:32:01.185Z,16.10
2018-05-07T05:34:28.736Z,16.00
2018-05-07T05:36:56.286Z,16.20
2018-05-07T05:39:24.560Z,16.30
2018-05-07T05:41:52.840Z,16.40
2018-05-07T05:44:21.682Z,16.40
2018-05-07T05:46:53.489Z,16.50
2018-05-07T05:49:21.039Z,16.50
2018-05-07T05:51:50.464Z,16.50
2018-05-07T05:54:18.022Z,16.60
2018-05-07T05:56:46.190Z,16.60
2018-05-07T05:59:13.720Z,16.70
2018-05-07T06:01:42.079Z,16.70
2018-05-07T06:04:09.712Z,16.70
2018-05-07T06:06:37.287Z,16.70
2018-05-07T06:09:05.732Z,16.70
2018-05-07T06:11:33.296Z,16.70
2018-05-07T06:14:00.832Z,16.60
2018-05-07T06:16:29.133Z,16.50
2018-05-07T06:18:56.714Z,16.50
2018-05-07T06:21:24.267Z,16.50
2018-05-07T06:23:51.792Z,16.40
2018-05-07T06:26:19.360Z,16.30
2018-05-07T06:28:46.917Z,16.40
2018-05-07T06:31:14.501Z,16.40
2018-05-07T06:33:42.035Z,16.50
2018-05-07T06:36:09.881Z,16.50
2018-05-07T06:38:58.902Z,16.50
2018-05-07T06:41:27.309Z,16.60
2018-05-07T06:43:54.904Z,16.70
2018-05-07T06:46:22.466Z,16.80
2018-05-07T06:48:50.021Z,16.90
2018-05-07T06:51:17.793Z,17.00
2018-05-07T06:53:45.396Z,17.10
2018-05-07T06:56:12.970Z,17.20
2018-05-07T06:58:40.595Z,17.30
2018-05-07T07:01:08.186Z,17.40
2018-05-07T07:03:35.799Z,17.50
2018-05-07T07:06:03.381Z,17.60
2018-05-07T07:08:31.499Z,17.70
2018-05-07T07:10:58.872Z,17.80
2018-05-07T07:13:26.584Z,17.90
2018-05-07T07:15:54.128Z,17.90
2018-05-07T07:18:22.357Z,18.10
2018-05-07T07:20:49.877Z,18.10
2018-05-07T07:23:17.502Z,18.20
2018-05-07T07:25:46.069Z,18.30
2018-05-07T07:28:13.830Z,18.30
2018-05-07T07:30:45.324Z,18.40
2018-05-07T07:33:12.896Z,18.50
2018-05-07T07:35:41.531Z,18.60
2018-05-07T07:38:14.208Z,18.70
2018-05-07T07:40:42.553Z,18.80
2018-05-07T07:43:10.995Z,18.90
2018-05-07T07:45:39.240Z,19.00
2018-05-07T07:48:08.219Z,19.20
2018-05-07T07:50:42.902Z,19.20
2018-05-07T07:53:12.285Z,19.30
2018-05-07T07:55:41.015Z,19.30
2018-05-07T07:58:09.370Z,19.40
2018-05-07T08:00:49.133Z,19.50
2018-05-07T08:03:37.072Z,19.70
2018-05-07T08:06:07.364Z,19.70
2018-05-07T08:08:36.538Z,19.80
2018-05-07T08:11:04.603Z,19.90
2018-05-07T08:13:32.998Z,19.90
2018-05-07T08:16:06.719Z,19.80
2018-05-07T08:18:34.417Z,19.90
2018-05-07T08:21:02.755Z,20.00
2018-05-07T08:23:31.702Z,20.00
2018-05-07T08:25:59.288Z,20.10
2018-05-07T08:28:27.652Z,20.10
2018-05-07T08:30:56.620Z,20.10
2018-05-07T08:33:25.888Z,20.20
2018-05-07T08:35:54.069Z,20.40
2018-05-07T08:38:23.668Z,20.50
2018-05-07T08:40:51.392Z,20.60
2018-05-07T08:43:19.015Z,20.60
2018-05-07T08:45:51.781Z,20.60
2018-05-07T08:48:25.080Z,20.60
2018-05-07T08:51:03.819Z,20.80
2018-05-07T08:53:34.884Z,20.80
2018-05-07T08:56:04.183Z,21.10
2018-05-07T08:58:34.260Z,21.10
2018-05-07T09:01:02.366Z,21.20
2018-05-07T09:03:38.402Z,21.30
2018-05-07T09:08:44.127Z,21.40
2018-05-07T09:11:12.309Z,21.50
2018-05-07T09:13:40.084Z,21.50
2018-05-07T09:16:07.671Z,21.50
2018-05-07T09:18:35.302Z,21.50
2018-05-07T09:21:04.136Z,21.60
2018-05-07T09:23:32.450Z,21.80
2018-05-07T09:26:00.264Z,21.80
2018-05-07T09:28:28.831Z,21.90
2018-05-07T09:30:56.410Z,21.80
2018-05-07T09:33:24.815Z,22.00
2018-05-07T09:35:52.440Z,21.90
2018-05-07T09:38:20.036Z,22.10
2018-05-07T09:40:47.849Z,22.10
2018-05-07T09:43:15.493Z,22.10
2018-05-07T09:45:43.241Z,22.20
2018-05-07T09:48:11.330Z,22.30
2018-05-07T09:50:39.050Z,22.30
2018-05-07T09:53:06.874Z,22.40
2018-05-07T09:55:34.430Z,22.20
2018-05-07T09:58:03.885Z,22.20
2018-05-07T10:00:37.322Z,22.40
2018-05-07T10:03:04.946Z,22.50
2018-05-07T10:05:32.556Z,22.60
2018-05-07T10:08:00.364Z,22.60
2018-05-07T10:10:27.987Z,22.70
2018-05-07T10:12:55.650Z,22.70
2018-05-07T10:15:23.263Z,22.70
2018-05-07T10:17:51.151Z,22.70
2018-05-07T10:20:18.901Z,22.60
2018-05-07T10:22:46.811Z,22.70
2018-05-07T10:25:15.015Z,22.80
2018-05-07T10:27:43.031Z,22.80
2018-05-07T10:30:10.715Z,22.80
2018-05-07T10:32:38.253Z,22.90
2018-05-07T10:35:06.832Z,22.90
2018-05-07T10:37:37.274Z,22.80
2018-05-07T10:40:04.951Z,22.80
2018-05-07T10:42:33.929Z,22.90
2018-05-07T10:45:03.154Z,22.90
2018-05-07T10:47:30.940Z,22.90
2018-05-07T10:49:58.743Z,23.00
2018-05-07T10:52:27.256Z,23.00
2018-05-07T10:54:56.073Z,23.00
2018-05-07T10:57:23.712Z,23.00
2018-05-07T10:59:51.673Z,23.00
2018-05-07T11:02:19.239Z,23.10
2018-05-07T11:04:46.815Z,23.20
2018-05-07T11:07:14.562Z,23.40
2018-05-07T11:09:42.138Z,23.50
2018-05-07T11:12:11.324Z,23.60
2018-05-07T11:14:38.986Z,23.60
2018-05-07T11:17:06.592Z,23.60
2018-05-07T11:19:35.080Z,23.70
2018-05-07T11:22:02.708Z,23.70
2018-05-07T11:24:30.852Z,23.70
2018-05-07T11:26:59.165Z,23.70
2018-05-07T11:29:26.707Z,23.70
2018-05-07T11:31:55.913Z,23.90
2018-05-07T11:34:23.895Z,23.90
2018-05-07T11:36:51.644Z,23.90
2018-05-07T11:39:19.296Z,24.00
2018-05-07T11:41:54.527Z,24.10
2018-05-07T11:44:23.762Z,24.10
2018-05-07T11:46:59.811Z,24.20
2018-05-07T11:49:30.224Z,24.20
2018-05-07T11:51:57.789Z,24.20
2018-05-07T11:54:25.479Z,24.20
2018-05-07T11:56:53.765Z,24.20
2018-05-07T11:59:22.885Z,24.10
2018-05-07T12:01:52.964Z,24.30
2018-05-07T12:04:22.641Z,24.40
2018-05-07T12:06:50.967Z,24.30
2018-05-07T12:09:18.507Z,24.30
2018-05-07T12:11:46.077Z,24.40
2018-05-07T12:14:13.687Z,24.50
2018-05-07T12:16:43.382Z,24.80
2018-05-07T12:19:11.698Z,24.90
2018-05-07T12:21:39.380Z,24.80
2018-05-07T12:24:06.936Z,24.90
2018-05-07T12:26:34.474Z,24.90
2018-05-07T12:29:02.758Z,24.80
2018-05-07T12:31:30.655Z,24.80
2018-05-07T12:33:58.243Z,24.80
2018-05-07T12:36:25.829Z,24.90
2018-05-07T12:38:54.124Z,25.00
2018-05-07T12:41:22.505Z,25.00
2018-05-07T12:43:50.098Z,25.00
2018-05-07T12:46:17.740Z,25.00
2018-05-07T12:48:45.396Z,25.00
2018-05-07T12:51:12.978Z,25.10
2018-05-07T12:53:42.197Z,25.10
2018-05-07T12:56:11.372Z,25.10
2018-05-07T12:58:39.840Z,25.10
2018-05-07T13:01:08.209Z,25.20
2018-05-07T13:03:36.449Z,25.20
2018-05-07T13:06:04.781Z,25.50
2018-05-07T13:08:32.356Z,25.50
2018-05-07T13:10:59.906Z,25.50
2018-05-07T13:13:28.218Z,25.60
2018-05-07T13:15:57.394Z,25.60
2018-05-07T13:18:27.495Z,25.60
2018-05-07T13:20:57.752Z,25.60
2018-05-07T13:23:26.112Z,25.60
2018-05-07T13:25:53.677Z,25.60
2018-05-07T13:28:21.231Z,25.70
2018-05-07T13:30:48.809Z,25.70
2018-05-07T13:33:17.153Z,25.80
2018-05-07T13:35:45.468Z,25.80
2018-05-07T13:38:13.917Z,25.90
2018-05-07T13:40:42.289Z,25.90
2018-05-07T13:43:10.048Z,25.90
2018-05-07T13:45:37.603Z,25.90
2018-05-07T13:48:05.206Z,25.80
2018-05-07T13:50:32.760Z,25.80
2018-05-07T13:53:00.352Z,25.80
2018-05-07T13:55:27.952Z,25.90
2018-05-07T13:57:55.596Z,25.80
2018-05-07T14:00:23.172Z,25.80
2018-05-07T14:02:50.817Z,25.80
2018-05-07T14:05:18.401Z,25.90
2018-05-07T14:07:45.972Z,26.00
2018-05-07T14:10:13.537Z,26.10
2018-05-07T14:12:41.123Z,26.10
2018-05-07T14:15:08.680Z,26.00
2018-05-07T14:17:37.004Z,26.10
2018-05-07T14:20:04.647Z,26.10
2018-05-07T14:22:32.215Z,26.20
2018-05-07T14:24:59.770Z,26.20
2018-05-07T14:27:28.286Z,26.30
2018-05-07T14:29:55.880Z,26.20
2018-05-07T14:32:23.462Z,26.10
2018-05-07T14:34:51.120Z,26.20
2018-05-07T14:37:18.675Z,26.30
2018-05-07T14:39:46.323Z,26.40
2018-05-07T14:42:14.617Z,26.30
2018-05-07T14:44:42.269Z,26.30
2018-05-07T14:47:09.929Z,26.30
2018-05-07T14:49:37.503Z,26.40
2018-05-07T14:52:05.105Z,26.40
2018-05-07T14:54:33.274Z,26.30
2018-05-07T14:57:00.840Z,26.40
2018-05-07T14:59:28.421Z,26.40
2018-05-07T15:01:56.765Z,26.50
2018-05-07T15:04:24.304Z,26.50
2018-05-07T15:06:51.834Z,26.60
2018-05-07T15:09:19.394Z,26.70
2018-05-07T15:11:46.963Z,26.70
2018-05-07T15:14:23.271Z,26.70
2018-05-07T15:16:50.855Z,26.60
2018-05-07T15:19:19.198Z,26.60
2018-05-07T15:21:46.730Z,26.50
2018-05-07T15:24:14.791Z,26.50
2018-05-07T15:26:42.384Z,26.60
2018-05-07T15:29:10.046Z,26.60
2018-05-07T15:31:37.596Z,26.60
2018-05-07T15:34:05.193Z,26.60
2018-05-07T15:36:33.481Z,26.60
2018-05-07T15:39:01.041Z,26.60
2018-05-07T15:41:28.588Z,26.60
2018-05-07T15:43:56.168Z,26.50
2018-05-07T15:46:23.683Z,26.50
2018-05-07T15:48:51.282Z,26.40
2018-05-07T15:51:19.670Z,26.40
2018-05-07T15:53:48.026Z,26.30
2018-05-07T15:56:15.700Z,26.40
2018-05-07T15:58:44.069Z,26.40
2018-05-07T16:01:12.408Z,26.40
2018-05-07T16:03:39.971Z,26.40
2018-05-07T16:06:07.579Z,26.40
2018-05-07T16:08:35.933Z,26.30
2018-05-07T16:11:03.468Z,26.30
2018-05-07T16:13:31.025Z,26.30
2018-05-07T16:15:58.620Z,26.20
2018-05-07T16:18:26.151Z,26.20
2018-05-07T16:20:53.722Z,26.10
2018-05-07T16:23:21.449Z,26.10
2018-05-07T16:25:48.934Z,26.10
2018-05-07T16:28:16.651Z,26.10
2018-05-07T16:30:44.021Z,26.00
2018-05-07T16:33:11.580Z,26.00
2018-05-07T16:35:39.224Z,26.10
2018-05-07T16:38:06.672Z,26.10
2018-05-07T16:40:34.982Z,26.20
2018-05-07T16:43:02.568Z,26.20
2018-05-07T16:45:30.220Z,26.20
2018-05-07T16:47:57.821Z,26.20
2018-05-07T16:50:27.024Z,26.30
2018-05-07T16:52:55.495Z,26.40
2018-05-07T16:55:22.913Z,26.40
2018-05-07T16:57:50.477Z,26.40
2018-05-07T17:00:18.028Z,26.40
2018-05-07T17:02:45.587Z,26.50
2018-05-07T17:05:13.152Z,26.50
2018-05-07T17:07:40.722Z,26.50
2018-05-07T17:10:08.248Z,26.60
2018-05-07T17:12:35.826Z,26.80
2018-05-07T17:15:03.375Z,27.10
2018-05-07T17:17:30.993Z,27.60
2018-05-07T17:19:58.533Z,28.20
2018-05-07T17:22:26.173Z,29.10
2018-05-07T17:24:53.799Z,30.20
2018-05-07T17:27:21.380Z,31.30
2018-05-07T17:29:48.947Z,32.50
2018-05-07T17:32:16.544Z,33.30
2018-05-07T17:34:44.885Z,34.30
2018-05-07T17:37:12.471Z,34.20
2018-05-07T17:39:40.102Z,34.80
2018-05-07T17:42:07.806Z,35.40
2018-05-07T17:44:48.102Z,36.10
2018-05-07T17:47:37.476Z,36.10
2018-05-07T17:50:05.075Z,36.30
2018-05-07T17:52:32.639Z,36.20
2018-05-07T17:55:00.250Z,35.90
2018-05-07T17:57:27.850Z,36.00
2018-05-07T17:59:55.495Z,35.70
2018-05-07T18:02:23.038Z,35.50
2018-05-07T18:04:50.687Z,35.50
2018-05-07T18:07:18.285Z,35.30
2018-05-07T18:09:45.846Z,34.60
2018-05-07T18:12:13.504Z,33.40
2018-05-07T18:14:41.180Z,31.50
2018-05-07T18:17:09.539Z,28.00
2018-05-07T18:19:37.137Z,27.90
2018-05-07T18:22:05.463Z,25.80
2018-05-07T18:24:33.037Z,25.70
2018-05-07T18:27:00.615Z,25.10
2018-05-07T18:29:28.178Z,24.60
2018-05-07T18:31:55.697Z,24.20
2018-05-07T18:34:24.040Z,23.60
2018-05-07T18:36:52.392Z,23.30
2018-05-07T18:39:19.966Z,23.30
2018-05-07T18:41:47.572Z,23.10
2018-05-07T18:44:15.114Z,22.80
2018-05-07T18:46:43.268Z,22.70
2018-05-07T18:49:11.613Z,22.30
2018-05-07T18:51:39.163Z,22.30
2018-05-07T18:54:06.711Z,22.10
2018-05-07T18:56:34.272Z,21.90
2018-05-07T18:59:01.831Z,21.70
2018-05-07T19:01:29.377Z,21.50
2018-05-07T19:03:56.916Z,21.40
2018-05-07T19:06:25.232Z,21.10
2018-05-07T19:08:52.794Z,21.00
2018-05-07T19:11:21.180Z,20.70
2018-05-07T19:13:48.817Z,20.70
2018-05-07T19:16:16.368Z,20.60
2018-05-07T19:18:43.924Z,20.50
2018-05-07T19:21:11.467Z,20.40
2018-05-07T19:23:39.881Z,20.30
2018-05-07T19:26:07.450Z,20.20
2018-05-07T19:28:35.011Z,20.10
2018-05-07T19:31:02.549Z,20.00
2018-05-07T19:33:30.096Z,19.90
2018-05-07T19:35:57.662Z,19.80
2018-05-07T19:38:25.974Z,19.60
2018-05-07T19:40:53.532Z,19.60
2018-05-07T19:43:21.076Z,19.50
2018-05-07T19:45:48.630Z,19.30
2018-05-07T19:48:16.190Z,19.30
2018-05-07T19:50:43.737Z,19.20
2018-05-07T19:53:11.342Z,19.00
2018-05-07T19:55:38.985Z,18.90
2018-05-07T19:58:07.276Z,18.70
2018-05-07T20:00:34.932Z,18.60
2018-05-07T20:03:03.271Z,18.50
2018-05-07T20:05:30.778Z,18.40
2018-05-07T20:07:58.346Z,18.30
2018-05-07T20:10:25.909Z,18.20
2018-05-07T20:12:53.476Z,18.20
2018-05-07T20:15:21.796Z,18.00
2018-05-07T20:17:49.370Z,17.90
2018-05-07T20:20:16.905Z,17.90
2018-05-07T20:22:45.225Z,17.70
2018-05-07T20:25:12.833Z,17.70
2018-05-07T20:27:40.388Z,17.60
2018-05-07T20:30:08.409Z,17.50
2018-05-07T20:32:35.984Z,17.40
2018-05-07T20:35:03.565Z,17.30
2018-05-07T20:37:31.980Z,17.10
2018-05-07T20:39:59.461Z,17.10
2018-05-07T20:42:27.030Z,17.00
2018-05-07T20:44:54.638Z,16.90
2018-05-07T20:47:22.243Z,16.80
2018-05-07T20:49:49.791Z,16.70
2018-05-07T20:52:17.367Z,16.60
2018-05-07T20:54:44.940Z,16.50
2018-05-07T20:57:14.072Z,16.30
2018-05-07T20:59:41.630Z,16.30
2018-05-07T21:02:09.230Z,16.20
2018-05-07T21:04:36.890Z,16.10
2018-05-07T21:07:05.242Z,16.00
2018-05-07T21:09:32.795Z,15.90
2018-05-07T21:12:00.360Z,15.70
2018-05-07T21:14:27.931Z,15.60
2018-05-07T21:16:55.507Z,15.60
2018-05-07T21:19:23.104Z,15.50
2018-05-07T21:21:51.443Z,15.40
2018-05-07T21:24:19.040Z,15.40
2018-05-07T21:26:47.342Z,15.40
2018-05-07T21:29:14.922Z,15.40
2018-05-07T21:31:42.472Z,15.30
2018-05-07T21:34:10.054Z,15.30
2018-05-07T21:36:38.237Z,15.20
2018-05-07T21:39:06.650Z,15.10
2018-05-07T21:41:34.990Z,14.90
2018-05-07T21:44:02.549Z,14.80
2018-05-07T21:46:30.115Z,14.70
2018-05-07T21:48:57.697Z,14.70
2018-05-07T21:51:26.703Z,14.60
2018-05-07T21:53:54.278Z,14.60
2018-05-07T21:56:21.935Z,14.60
2018-05-07T21:58:49.527Z,14.50
2018-05-07T22:01:17.086Z,14.50
2018-05-07T22:03:44.628Z,14.40
2018-05-07T22:06:12.208Z,14.30
2018-05-07T22:08:39.800Z,14.20
2018-05-07T22:11:07.348Z,14.10
2018-05-07T22:13:35.052Z,14.00
2018-05-07T22:16:02.594Z,14.00
2018-05-07T22:18:30.139Z,13.90
2018-05-07T22:20:58.279Z,13.80
2018-05-07T22:23:25.886Z,13.80
2018-05-07T22:25:54.219Z,13.60
2018-05-07T22:28:21.728Z,13.60
2018-05-07T22:30:50.095Z,13.50
2018-05-07T22:33:17.665Z,13.50
2018-05-07T22:35:45.718Z,13.50
2018-05-07T22:38:13.366Z,13.40
2018-05-07T22:40:40.923Z,13.30
2018-05-07T22:43:08.497Z,13.20
2018-05-07T22:45:36.738Z,13.10
2018-05-07T22:48:04.257Z,13.10
2018-05-07T22:50:32.587Z,13.00
2018-05-07T22:53:00.193Z,13.00
2018-05-07T22:55:27.833Z,13.00
2018-05-07T22:57:56.163Z,12.90
2018-05-07T23:00:23.785Z,12.80
2018-05-07T23:02:52.750Z,12.80
2018-05-07T23:05:20.354Z,12.80
2018-05-07T23:07:47.896Z,12.70
2018-05-07T23:10:16.228Z,12.60
2018-05-07T23:12:43.775Z,12.60
2018-05-07T23:15:11.399Z,12.60
2018-05-07T23:17:38.945Z,12.50
2018-05-07T23:20:07.361Z,12.40
2018-05-07T23:22:34.990Z,12.40
2018-05-07T23:25:03.295Z,12.30
2018-05-07T23:27:30.926Z,12.30
2018-05-07T23:29:59.240Z,12.20
2018-05-07T23:32:27.684Z,12.20
2018-05-07T23:34:56.032Z,12.20
2018-05-07T23:37:23.630Z,12.20
2018-05-07T23:39:51.196Z,12.20
2018-05-07T23:42:18.788Z,12.20
2018-05-07T23:44:46.358Z,12.10
2018-05-07T23:47:13.908Z,12.20
2018-05-07T23:49:41.445Z,12.10
2018-05-07T23:52:09.005Z,12.00
2018-05-07T23:54:37.338Z,12.00
2018-05-07T23:57:06.378Z,11.90
2018-05-07T23:59:33.936Z,11.90
